createdAt,value
2019-05-21T00:00:00.348Z,18.20
2019-05-21T00:02:29.391Z,18.10
2019-05-21T00:04:58.543Z,18.10
2019-05-21T00:07:33.741Z,18.10
2019-05-21T00:09:59.785Z,18.00
2019-05-21T00:12:25.972Z,18.00
2019-05-21T00:15:00.827Z,18.00
2019-05-21T00:17:27.526Z,18.00
2019-05-21T00:19:53.593Z,18.00
2019-05-21T00:22:19.712Z,18.00
2019-05-21T00:24:47.264Z,18.00
2019-05-21T00:27:13.369Z,18.00
2019-05-21T00:30:17.027Z,18.00
2019-05-21T00:33:30.157Z,18.10
2019-05-21T00:36:35.533Z,18.00
2019-05-21T00:39:39.267Z,18.00
2019-05-21T00:42:05.764Z,17.90
2019-05-21T00:44:44.755Z,17.90
2019-05-21T00:47:26.652Z,17.80
2019-05-21T00:49:56.484Z,17.90
2019-05-21T00:52:22.533Z,17.80
2019-05-21T00:54:48.588Z,17.70
2019-05-21T00:57:14.606Z,17.70
2019-05-21T00:59:41.008Z,17.70
2019-05-21T01:02:07.025Z,17.60
2019-05-21T01:04:33.051Z,17.50
2019-05-21T01:06:59.098Z,17.40
2019-05-21T01:09:25.146Z,17.30
2019-05-21T01:11:51.150Z,17.30
2019-05-21T01:14:17.288Z,17.30
2019-05-21T01:16:43.656Z,17.30
2019-05-21T01:19:10.254Z,17.20
2019-05-21T01:21:36.373Z,17.20
2019-05-21T01:24:10.369Z,17.20
2019-05-21T01:26:36.428Z,17.10
2019-05-21T01:29:04.388Z,17.00
2019-05-21T01:31:30.510Z,17.00
2019-05-21T01:33:56.523Z,16.90
2019-05-21T01:36:22.568Z,16.80
2019-05-21T01:38:48.600Z,16.60
2019-05-21T01:41:15.902Z,16.50
2019-05-21T01:43:53.136Z,16.50
2019-05-21T01:46:35.700Z,16.60
2019-05-21T01:49:06.050Z,16.50
2019-05-21T01:51:36.676Z,16.60
2019-05-21T01:54:05.797Z,16.60
2019-05-21T01:56:36.979Z,16.60
2019-05-21T01:59:03.407Z,16.60
2019-05-21T02:01:29.465Z,16.60
2019-05-21T02:03:56.724Z,16.60
2019-05-21T02:06:23.531Z,16.50
2019-05-21T02:08:51.510Z,16.60
2019-05-21T02:11:17.641Z,16.60
2019-05-21T02:13:44.069Z,16.60
2019-05-21T02:16:10.108Z,16.60
2019-05-21T02:18:36.244Z,16.60
2019-05-21T02:21:02.354Z,16.50
2019-05-21T02:23:28.621Z,16.60
2019-05-21T02:25:54.987Z,16.60
2019-05-21T02:28:21.313Z,16.50
2019-05-21T02:30:47.325Z,16.50
2019-05-21T02:33:13.364Z,16.50
2019-05-21T02:35:53.837Z,16.40
2019-05-21T02:38:07.316Z,16.40
2019-05-21T02:40:33.604Z,16.40
2019-05-21T02:42:59.654Z,16.40
2019-05-21T02:45:25.695Z,16.50
2019-05-21T02:47:51.760Z,16.50
2019-05-21T02:50:17.777Z,16.40
2019-05-21T02:52:44.930Z,16.40
2019-05-21T02:55:11.048Z,16.40
2019-05-21T02:57:38.530Z,16.40
2019-05-21T03:00:06.952Z,16.40
2019-05-21T03:02:34.892Z,16.40
2019-05-21T03:05:00.904Z,16.40
2019-05-21T03:07:26.920Z,16.40
2019-05-21T03:09:54.076Z,16.40
2019-05-21T03:12:20.413Z,16.40
2019-05-21T03:14:46.490Z,16.40
2019-05-21T03:17:32.427Z,16.40
2019-05-21T03:19:58.640Z,16.40
2019-05-21T03:22:24.652Z,16.40
2019-05-21T03:24:50.689Z,16.40
2019-05-21T03:27:16.702Z,16.40
2019-05-21T03:29:42.713Z,16.40
2019-05-21T03:32:08.794Z,16.40
2019-05-21T03:34:35.196Z,16.50
2019-05-21T03:37:01.197Z,16.40
2019-05-21T03:39:27.452Z,16.40
2019-05-21T03:41:53.751Z,16.40
2019-05-21T03:44:19.796Z,16.40
2019-05-21T03:46:45.905Z,16.50
2019-05-21T03:49:11.912Z,16.40
2019-05-21T03:51:37.927Z,16.40
2019-05-21T03:54:04.042Z,16.40
2019-05-21T03:56:30.316Z,16.50
2019-05-21T03:58:56.352Z,16.50
2019-05-21T04:01:22.575Z,16.50
2019-05-21T04:03:48.594Z,16.50
2019-05-21T04:06:14.604Z,16.50
2019-05-21T04:08:40.715Z,16.50
2019-05-21T04:11:06.738Z,16.50
2019-05-21T04:13:32.836Z,16.50
2019-05-21T04:16:00.794Z,16.50
2019-05-21T04:18:28.744Z,16.50
2019-05-21T04:20:54.905Z,16.50
2019-05-21T04:23:20.939Z,16.50
2019-05-21T04:25:47.191Z,16.50
2019-05-21T04:28:13.225Z,16.50
2019-05-21T04:30:40.189Z,16.60
2019-05-21T04:33:06.196Z,16.70
2019-05-21T04:35:32.212Z,16.70
2019-05-21T04:37:58.944Z,16.70
2019-05-21T04:40:24.968Z,16.80
2019-05-21T04:42:51.024Z,16.80
2019-05-21T04:45:17.127Z,16.80
2019-05-21T04:47:43.142Z,16.80
2019-05-21T04:50:09.153Z,16.80
2019-05-21T04:52:35.272Z,16.80
2019-05-21T04:55:01.593Z,16.80
2019-05-21T04:57:27.662Z,16.80
2019-05-21T04:59:53.811Z,16.80
2019-05-21T05:02:23.306Z,16.80
2019-05-21T05:04:51.337Z,16.80
2019-05-21T05:07:28.543Z,16.80
2019-05-21T05:09:53.364Z,16.80
2019-05-21T05:12:19.447Z,16.80
2019-05-21T05:14:45.564Z,17.00
2019-05-21T05:17:11.592Z,17.10
2019-05-21T05:19:37.667Z,17.10
2019-05-21T05:22:05.620Z,17.10
2019-05-21T05:24:31.724Z,17.00
2019-05-21T05:26:57.803Z,17.00
2019-05-21T05:29:23.949Z,17.00
2019-05-21T05:31:49.991Z,17.00
2019-05-21T05:34:18.927Z,17.10
2019-05-21T05:36:47.885Z,17.20
2019-05-21T05:39:23.328Z,17.30
2019-05-21T05:41:51.384Z,17.30
2019-05-21T05:44:17.473Z,17.30
2019-05-21T05:46:43.764Z,17.40
2019-05-21T05:49:12.633Z,17.40
2019-05-21T05:51:38.692Z,17.40
2019-05-21T05:54:07.591Z,17.40
2019-05-21T05:56:32.923Z,17.30
2019-05-21T05:59:04.121Z,17.30
2019-05-21T06:01:32.045Z,17.30
2019-05-21T06:03:58.258Z,17.30
2019-05-21T06:06:24.366Z,17.40
2019-05-21T06:08:50.375Z,17.30
2019-05-21T06:11:16.412Z,17.30
2019-05-21T06:13:42.445Z,17.20
2019-05-21T06:16:08.489Z,17.20
2019-05-21T06:18:35.636Z,17.30
2019-05-21T06:21:02.024Z,17.20
2019-05-21T06:23:31.977Z,17.20
2019-05-21T06:25:58.155Z,17.10
2019-05-21T06:28:24.215Z,17.10
2019-05-21T06:30:53.405Z,17.10
2019-05-21T06:33:19.508Z,17.10
2019-05-21T06:35:47.444Z,17.20
2019-05-21T06:38:17.745Z,17.10
2019-05-21T06:40:41.565Z,17.10
2019-05-21T06:43:07.581Z,17.10
2019-05-21T06:45:33.586Z,17.20
2019-05-21T06:47:59.760Z,17.10
2019-05-21T06:50:26.103Z,17.10
2019-05-21T06:52:52.103Z,17.10
2019-05-21T06:55:18.522Z,17.20
2019-05-21T06:57:44.554Z,17.20
2019-05-21T07:00:12.476Z,17.20
2019-05-21T07:02:38.649Z,17.20
2019-05-21T07:05:07.304Z,17.30
2019-05-21T07:07:35.079Z,17.30
2019-05-21T07:10:01.214Z,17.30
2019-05-21T07:12:30.119Z,17.40
2019-05-21T07:14:58.114Z,17.60
2019-05-21T07:17:25.542Z,17.70
2019-05-21T07:19:51.879Z,17.70
2019-05-21T07:22:37.886Z,17.60
2019-05-21T07:25:05.412Z,17.60
2019-05-21T07:27:31.441Z,17.50
2019-05-21T07:29:57.459Z,17.60
2019-05-21T07:32:26.253Z,17.50
2019-05-21T07:34:57.303Z,17.50
2019-05-21T07:37:24.495Z,17.50
2019-05-21T07:39:50.503Z,17.50
2019-05-21T07:42:16.563Z,17.50
2019-05-21T07:44:42.620Z,17.50
2019-05-21T07:47:08.656Z,17.60
2019-05-21T07:49:34.722Z,17.60
2019-05-21T07:52:03.612Z,17.60
2019-05-21T07:54:44.611Z,17.50
2019-05-21T07:57:10.752Z,17.50
2019-05-21T07:59:36.771Z,17.50
2019-05-21T08:02:03.139Z,17.50
2019-05-21T08:04:29.270Z,17.50
2019-05-21T08:06:55.369Z,17.60
2019-05-21T08:09:21.401Z,17.60
2019-05-21T08:11:53.584Z,17.60
2019-05-21T08:14:19.602Z,17.50
2019-05-21T08:16:48.693Z,17.50
2019-05-21T08:19:15.111Z,17.50
2019-05-21T08:21:41.128Z,17.60
2019-05-21T08:24:07.239Z,17.70
2019-05-21T08:26:38.179Z,17.70
2019-05-21T08:29:04.256Z,17.80
2019-05-21T08:31:30.359Z,17.70
2019-05-21T08:33:58.876Z,17.70
2019-05-21T08:36:24.916Z,17.60
2019-05-21T08:38:50.936Z,17.50
2019-05-21T08:41:16.996Z,17.50
2019-05-21T08:43:43.015Z,17.60
2019-05-21T08:46:09.050Z,17.60
2019-05-21T08:48:35.409Z,17.70
2019-05-21T08:51:01.423Z,17.70
2019-05-21T08:53:27.440Z,17.60
2019-05-21T08:55:53.992Z,17.70
2019-05-21T08:58:20.085Z,17.70
2019-05-21T09:00:46.209Z,17.80
2019-05-21T09:03:12.381Z,17.80
2019-05-21T09:05:38.495Z,17.80
2019-05-21T09:08:04.532Z,17.80
2019-05-21T09:10:31.787Z,17.90
2019-05-21T09:12:57.829Z,18.00
2019-05-21T09:15:23.901Z,18.10
2019-05-21T09:17:50.381Z,18.00
2019-05-21T09:20:16.894Z,18.00
2019-05-21T09:22:43.211Z,17.90
2019-05-21T09:25:09.472Z,17.90
2019-05-21T09:27:36.037Z,17.90
2019-05-21T09:30:05.383Z,17.80
2019-05-21T09:32:31.432Z,17.70
2019-05-21T09:34:57.447Z,17.70
2019-05-21T09:37:23.484Z,17.70
2019-05-21T09:39:49.992Z,17.70
2019-05-21T09:42:16.153Z,17.60
2019-05-21T09:44:44.074Z,17.70
2019-05-21T09:47:10.107Z,17.80
2019-05-21T09:49:36.154Z,17.90
2019-05-21T09:52:02.188Z,17.90
2019-05-21T09:54:28.223Z,17.80
2019-05-21T09:56:54.287Z,17.80
2019-05-21T09:59:39.187Z,17.70
2019-05-21T10:02:15.987Z,17.80
2019-05-21T10:04:42.680Z,17.80
2019-05-21T10:07:36.310Z,17.90
2019-05-21T10:09:55.297Z,18.00
2019-05-21T10:12:21.305Z,18.00
2019-05-21T10:14:50.428Z,18.00
2019-05-21T10:17:17.104Z,17.90
2019-05-21T10:19:44.539Z,18.00
2019-05-21T10:22:11.597Z,18.10
2019-05-21T10:24:45.650Z,18.20
2019-05-21T10:27:11.680Z,18.30
2019-05-21T10:29:38.231Z,18.20
2019-05-21T10:32:12.358Z,18.10
2019-05-21T10:34:38.410Z,18.20
2019-05-21T10:37:07.089Z,18.40
2019-05-21T10:39:33.145Z,18.60
2019-05-21T10:41:59.239Z,18.60
2019-05-21T10:44:25.262Z,18.50
2019-05-21T10:46:51.404Z,18.60
2019-05-21T10:49:20.524Z,18.60
2019-05-21T10:51:46.672Z,18.60
2019-05-21T10:54:12.824Z,18.80
2019-05-21T10:56:48.033Z,18.80
2019-05-21T10:59:07.061Z,18.80
2019-05-21T11:01:35.632Z,18.90
2019-05-21T11:04:21.473Z,18.90
2019-05-21T11:06:48.387Z,18.90
2019-05-21T11:09:16.303Z,18.90
2019-05-21T11:11:56.076Z,18.90
2019-05-21T11:14:25.554Z,18.90
2019-05-21T11:16:51.965Z,18.90
2019-05-21T11:19:18.007Z,18.90
2019-05-21T11:21:47.826Z,18.80
2019-05-21T11:24:18.468Z,18.70
2019-05-21T11:26:44.508Z,18.80
2019-05-21T11:29:16.717Z,18.80
2019-05-21T11:31:57.064Z,18.90
2019-05-21T11:34:18.339Z,18.80
2019-05-21T11:36:44.374Z,18.80
2019-05-21T11:39:10.399Z,18.90
2019-05-21T11:41:36.691Z,18.80
2019-05-21T11:44:02.709Z,18.70
2019-05-21T11:46:28.723Z,18.80
2019-05-21T11:48:55.349Z,18.80
2019-05-21T11:51:21.542Z,19.00
2019-05-21T11:53:47.548Z,19.10
2019-05-21T11:56:13.632Z,19.20
2019-05-21T11:58:43.085Z,19.20
2019-05-21T12:01:09.148Z,19.20
2019-05-21T12:03:35.536Z,19.20
2019-05-21T12:06:01.832Z,19.30
2019-05-21T12:08:27.868Z,19.30
2019-05-21T12:10:53.896Z,19.30
2019-05-21T12:13:20.689Z,19.20
2019-05-21T12:15:46.948Z,19.20
2019-05-21T12:18:13.062Z,19.20
2019-05-21T12:20:39.064Z,19.20
2019-05-21T12:23:05.117Z,19.30
2019-05-21T12:25:31.263Z,19.40
2019-05-21T12:27:57.673Z,19.40
2019-05-21T12:30:23.727Z,19.40
2019-05-21T12:32:50.255Z,19.50
2019-05-21T12:35:16.267Z,19.50
2019-05-21T12:37:42.381Z,19.50
2019-05-21T12:40:08.643Z,19.50
2019-05-21T12:42:34.702Z,19.50
2019-05-21T12:45:00.692Z,19.40
2019-05-21T12:47:27.202Z,19.30
2019-05-21T12:49:53.212Z,19.20
2019-05-21T12:52:19.293Z,19.20
2019-05-21T12:54:46.234Z,19.20
2019-05-21T12:57:12.460Z,19.30
2019-05-21T12:59:38.474Z,19.20
2019-05-21T13:02:04.517Z,19.10
2019-05-21T13:04:30.789Z,19.20
2019-05-21T13:06:56.846Z,19.30
2019-05-21T13:09:32.234Z,19.20
2019-05-21T13:11:50.851Z,19.10
2019-05-21T13:14:18.880Z,19.00
2019-05-21T13:16:44.913Z,19.00
2019-05-21T13:19:11.429Z,19.10
2019-05-21T13:21:37.672Z,19.00
2019-05-21T13:24:03.828Z,19.10
2019-05-21T13:26:30.227Z,19.10
2019-05-21T13:29:10.999Z,19.20
2019-05-21T13:31:43.564Z,19.30
2019-05-21T13:34:10.043Z,19.30
2019-05-21T13:36:36.059Z,19.20
2019-05-21T13:39:04.542Z,19.10
2019-05-21T13:41:30.652Z,19.00
2019-05-21T13:43:56.684Z,19.00
2019-05-21T13:46:22.832Z,19.00
2019-05-21T13:48:49.461Z,18.90
2019-05-21T13:51:15.537Z,18.90
2019-05-21T13:53:44.213Z,18.90
2019-05-21T13:56:16.631Z,18.80
2019-05-21T13:58:49.699Z,18.60
2019-05-21T14:01:16.433Z,18.50
2019-05-21T14:03:47.283Z,18.30
2019-05-21T14:06:40.024Z,18.20
2019-05-21T14:09:05.369Z,18.10
2019-05-21T14:11:39.242Z,17.90
2019-05-21T14:14:05.259Z,17.70
2019-05-21T14:16:34.622Z,17.50
2019-05-21T14:18:59.285Z,17.40
2019-05-21T14:21:25.309Z,17.40
2019-05-21T14:23:51.340Z,17.30
2019-05-21T14:26:19.315Z,17.30
2019-05-21T14:28:45.348Z,17.30
2019-05-21T14:31:14.364Z,17.30
2019-05-21T14:33:40.372Z,17.10
2019-05-21T14:36:06.581Z,16.90
2019-05-21T14:38:32.612Z,16.90
2019-05-21T14:40:58.636Z,16.90
2019-05-21T14:43:24.642Z,16.90
2019-05-21T14:45:51.059Z,16.80
2019-05-21T14:48:17.094Z,16.80
2019-05-21T14:50:43.194Z,16.70
2019-05-21T14:53:09.328Z,16.60
2019-05-21T14:55:35.340Z,16.50
2019-05-21T14:58:01.354Z,16.40
2019-05-21T15:00:30.711Z,16.40
2019-05-21T15:02:56.724Z,16.30
2019-05-21T15:05:22.741Z,16.20
2019-05-21T15:07:49.819Z,16.10
2019-05-21T15:10:16.089Z,16.10
2019-05-21T15:12:42.171Z,16.00
2019-05-21T15:15:08.378Z,16.00
2019-05-21T15:17:34.479Z,15.90
2019-05-21T15:20:02.443Z,15.80
2019-05-21T15:22:28.648Z,15.80
2019-05-21T15:24:54.989Z,15.70
2019-05-21T15:27:21.089Z,15.50
2019-05-21T15:29:47.124Z,15.50
2019-05-21T15:32:13.147Z,15.60
2019-05-21T15:34:39.177Z,15.60
2019-05-21T15:37:05.738Z,15.60
2019-05-21T15:39:31.876Z,15.60
2019-05-21T15:41:59.278Z,15.60
2019-05-21T15:44:26.362Z,15.50
2019-05-21T15:46:52.418Z,15.50
2019-05-21T15:49:35.602Z,15.50
2019-05-21T15:51:51.621Z,15.40
2019-05-21T15:54:33.717Z,15.40
2019-05-21T15:56:59.780Z,15.30
2019-05-21T15:59:33.523Z,15.30
2019-05-21T16:02:02.436Z,15.30
2019-05-21T16:04:31.060Z,15.30
2019-05-21T16:07:06.008Z,15.20
2019-05-21T16:09:37.447Z,15.30
2019-05-21T16:12:11.227Z,15.20
2019-05-21T16:14:40.527Z,15.20
2019-05-21T16:17:15.280Z,15.20
2019-05-21T16:19:41.312Z,15.20
2019-05-21T16:22:12.681Z,15.10
2019-05-21T16:24:49.275Z,15.10
2019-05-21T16:29:49.306Z,15.10
2019-05-21T16:32:20.472Z,15.10
2019-05-21T16:34:46.540Z,15.00
2019-05-21T16:37:18.243Z,14.90
2019-05-21T16:40:01.768Z,14.90
2019-05-21T16:42:36.424Z,14.90
2019-05-21T16:45:03.986Z,14.80
2019-05-21T16:47:46.327Z,14.80
2019-05-21T16:50:19.984Z,14.80
2019-05-21T16:52:55.620Z,14.70
2019-05-21T16:55:24.739Z,14.70
2019-05-21T16:57:50.768Z,14.70
2019-05-21T17:00:17.198Z,14.70
2019-05-21T17:02:43.245Z,14.70
2019-05-21T17:05:11.161Z,14.70
2019-05-21T17:07:37.197Z,14.60
2019-05-21T17:10:04.195Z,14.60
2019-05-21T17:12:30.261Z,14.50
2019-05-21T17:14:56.284Z,14.50
2019-05-21T17:17:22.383Z,14.60
2019-05-21T17:19:48.464Z,14.70
2019-05-21T17:22:19.891Z,14.60
2019-05-21T17:24:47.828Z,14.60
2019-05-21T17:27:13.860Z,14.60
2019-05-21T17:29:40.061Z,14.50
2019-05-21T17:32:06.861Z,14.50
2019-05-21T17:34:35.587Z,14.60
2019-05-21T17:37:03.521Z,14.60
2019-05-21T17:39:33.339Z,14.60
2019-05-21T17:42:15.088Z,14.50
2019-05-21T17:44:35.301Z,14.50
2019-05-21T17:47:01.291Z,14.40
2019-05-21T17:49:27.343Z,14.40
2019-05-21T17:51:53.495Z,14.40
2019-05-21T17:54:21.954Z,14.40
2019-05-21T17:56:57.868Z,14.40
2019-05-21T17:59:30.614Z,14.40
2019-05-21T18:01:56.741Z,14.40
2019-05-21T18:04:22.980Z,14.40
2019-05-21T18:06:49.264Z,14.30
2019-05-21T18:09:16.946Z,14.30
2019-05-21T18:11:56.274Z,14.30
2019-05-21T18:14:22.352Z,14.20
2019-05-21T18:16:48.478Z,14.20
2019-05-21T18:19:14.992Z,14.20
2019-05-21T18:21:53.263Z,14.20
2019-05-21T18:24:21.314Z,14.20
2019-05-21T18:26:47.341Z,14.10
2019-05-21T18:29:19.127Z,14.00
2019-05-21T18:32:17.664Z,13.90
2019-05-21T18:34:29.238Z,14.00
2019-05-21T18:37:28.784Z,14.00
2019-05-21T18:39:38.396Z,13.90
2019-05-21T18:42:21.731Z,13.90
2019-05-21T18:44:47.203Z,14.00
2019-05-21T18:47:21.768Z,13.90
2019-05-21T18:50:00.619Z,13.90
2019-05-21T18:52:32.658Z,13.90
2019-05-21T18:54:59.111Z,13.90
2019-05-21T18:57:29.932Z,13.90
2019-05-21T19:00:02.181Z,14.00
2019-05-21T19:02:28.347Z,13.90
2019-05-21T19:04:54.430Z,13.90
2019-05-21T19:07:20.517Z,13.90
2019-05-21T19:09:46.556Z,13.80
2019-05-21T19:12:12.571Z,13.80
2019-05-21T19:14:45.062Z,13.80
2019-05-21T19:17:06.750Z,13.80
2019-05-21T19:19:36.985Z,13.80
2019-05-21T19:22:06.248Z,13.90
2019-05-21T19:24:32.686Z,13.90
2019-05-21T19:26:58.691Z,13.90
2019-05-21T19:29:25.024Z,13.80
2019-05-21T19:31:51.143Z,13.80
2019-05-21T19:34:23.651Z,13.80
2019-05-21T19:36:49.747Z,13.80
2019-05-21T19:39:16.308Z,13.80
2019-05-21T19:41:42.319Z,13.70
2019-05-21T19:44:18.873Z,13.80
2019-05-21T19:46:44.897Z,13.70
2019-05-21T19:49:11.262Z,13.70
2019-05-21T19:51:43.109Z,13.70
2019-05-21T19:54:21.408Z,13.70
2019-05-21T19:56:55.532Z,13.60
2019-05-21T19:59:21.843Z,13.60
2019-05-21T20:01:48.366Z,13.60
2019-05-21T20:04:14.915Z,13.60
2019-05-21T20:06:40.919Z,13.60
2019-05-21T20:09:11.613Z,13.60
2019-05-21T20:11:37.686Z,13.60
2019-05-21T20:14:03.763Z,13.50
2019-05-21T20:16:30.129Z,13.50
2019-05-21T20:18:56.299Z,13.40
2019-05-21T20:21:22.853Z,13.40
2019-05-21T20:23:50.775Z,13.30
2019-05-21T20:26:18.305Z,13.40
2019-05-21T20:28:47.656Z,13.30
2019-05-21T20:31:14.345Z,13.20
2019-05-21T20:33:44.605Z,13.30
2019-05-21T20:36:10.640Z,13.30
2019-05-21T20:38:37.067Z,13.20
2019-05-21T20:41:03.286Z,13.20
2019-05-21T20:43:29.539Z,13.20
2019-05-21T20:45:57.011Z,13.20
2019-05-21T20:48:23.258Z,13.30
2019-05-21T20:50:49.947Z,13.30
2019-05-21T20:53:15.971Z,13.30
2019-05-21T20:55:41.983Z,13.20
2019-05-21T20:58:08.941Z,13.20
2019-05-21T21:00:43.098Z,13.20
2019-05-21T21:03:09.488Z,13.20
2019-05-21T21:05:36.174Z,13.10
2019-05-21T21:08:03.202Z,13.10
2019-05-21T21:10:29.607Z,13.10
2019-05-21T21:12:56.076Z,13.00
2019-05-21T21:15:22.900Z,13.00
2019-05-21T21:17:49.031Z,13.00
2019-05-21T21:20:15.067Z,13.00
2019-05-21T21:22:44.134Z,13.00
2019-05-21T21:25:10.175Z,13.00
2019-05-21T21:27:36.264Z,13.00
2019-05-21T21:30:06.024Z,12.90
2019-05-21T21:32:32.135Z,12.90
2019-05-21T21:34:58.164Z,12.90
2019-05-21T21:37:30.018Z,12.90
2019-05-21T21:39:56.491Z,12.90
2019-05-21T21:42:22.707Z,12.90
2019-05-21T21:44:48.715Z,13.00
2019-05-21T21:47:16.310Z,13.00
2019-05-21T21:49:43.384Z,13.00
2019-05-21T21:52:10.750Z,13.00
2019-05-21T21:54:37.683Z,13.00
2019-05-21T21:57:03.735Z,13.00
2019-05-21T21:59:29.748Z,13.00
2019-05-21T22:01:59.628Z,12.90
2019-05-21T22:04:28.378Z,12.80
2019-05-21T22:06:55.298Z,12.70
2019-05-21T22:09:23.203Z,12.70
2019-05-21T22:11:49.327Z,12.70
2019-05-21T22:14:15.763Z,12.70
2019-05-21T22:16:42.478Z,12.60
2019-05-21T22:19:08.659Z,12.60
2019-05-21T22:21:37.822Z,12.60
2019-05-21T22:24:04.164Z,12.60
2019-05-21T22:26:30.483Z,12.50
2019-05-21T22:28:56.532Z,12.50
2019-05-21T22:31:22.715Z,12.50
2019-05-21T22:33:48.819Z,12.50
2019-05-21T22:36:15.266Z,12.60
2019-05-21T22:38:41.279Z,12.50
2019-05-21T22:41:07.375Z,12.50
2019-05-21T22:43:33.510Z,12.50
2019-05-21T22:45:59.534Z,12.40
2019-05-21T22:48:25.638Z,12.40
2019-05-21T22:50:52.099Z,12.40
2019-05-21T22:53:18.154Z,12.50
2019-05-21T22:55:44.252Z,12.50
2019-05-21T22:58:10.689Z,12.50
2019-05-21T23:00:36.920Z,12.60
2019-05-21T23:03:04.683Z,12.50
2019-05-21T23:05:31.110Z,12.50
2019-05-21T23:08:01.207Z,12.40
2019-05-21T23:10:27.442Z,12.40
2019-05-21T23:12:53.922Z,12.50
2019-05-21T23:15:26.313Z,12.50
2019-05-21T23:17:55.633Z,12.50
2019-05-21T23:20:23.839Z,12.50
2019-05-21T23:22:51.766Z,12.50
2019-05-21T23:25:19.711Z,12.50
2019-05-21T23:27:47.632Z,12.50
2019-05-21T23:30:15.211Z,12.50
2019-05-21T23:32:41.448Z,12.50
2019-05-21T23:35:11.175Z,12.40
2019-05-21T23:37:39.219Z,12.40
2019-05-21T23:40:07.305Z,12.40
2019-05-21T23:42:33.815Z,12.40
2019-05-21T23:45:00.449Z,12.30
2019-05-21T23:47:27.278Z,12.30
2019-05-21T23:49:53.626Z,12.30
2019-05-21T23:52:19.751Z,12.40
2019-05-21T23:54:45.804Z,12.40
2019-05-21T23:57:13.716Z,12.40
2019-05-21T23:59:39.827Z,12.40
